createdAt,value
2022-10-19T00:02:22.068Z,102249.66
2022-10-19T00:04:48.598Z,102239.31
2022-10-19T00:07:39.899Z,102237.03
2022-10-19T00:10:06.729Z,102245.81
2022-10-19T00:12:33.408Z,102241.13
2022-10-19T00:15:00.264Z,102241.84
2022-10-19T00:17:26.774Z,102236.78
2022-10-19T00:19:53.321Z,102245.69
2022-10-19T00:22:19.809Z,102244.41
2022-10-19T00:24:46.749Z,102244.88
2022-10-19T00:27:13.411Z,102247.16
2022-10-19T00:29:40.010Z,102253.94
2022-10-19T00:32:06.546Z,102255.97
2022-10-19T00:34:33.063Z,102254.66
2022-10-19T00:36:59.624Z,102261.28
2022-10-19T00:39:26.103Z,102271.25
2022-10-19T00:41:52.674Z,102265.97
2022-10-19T00:44:19.106Z,102265.53
2022-10-19T00:46:50.535Z,102267.91
2022-10-19T00:49:23.663Z,102269.13
2022-10-19T00:52:01.437Z,102268.66
2022-10-19T00:54:28.503Z,102272.09
2022-10-19T00:56:57.938Z,102266.13
2022-10-19T00:59:26.600Z,102271.13
2022-10-19T01:01:54.334Z,102276.16
2022-10-19T01:04:23.496Z,102275.88
2022-10-19T01:09:17.710Z,102277.97
2022-10-19T01:12:15.132Z,102280.69
2022-10-19T01:14:44.599Z,102276.00
2022-10-19T01:17:44.849Z,102266.28
2022-10-19T01:20:48.873Z,102269.44
2022-10-19T01:23:31.487Z,102268.72
2022-10-19T01:26:07.167Z,102268.94
2022-10-19T01:29:01.814Z,102265.16
2022-10-19T01:31:46.864Z,102272.81
2022-10-19T01:34:15.323Z,102275.91
2022-10-19T01:36:47.973Z,102276.97
2022-10-19T01:39:45.259Z,102267.66
2022-10-19T01:42:33.236Z,102274.97
2022-10-19T01:45:07.897Z,102271.81
2022-10-19T01:48:08.315Z,102267.81
2022-10-19T01:50:45.727Z,102266.13
2022-10-19T01:53:14.391Z,102269.56
2022-10-19T01:55:44.627Z,102273.16
2022-10-19T01:58:16.542Z,102266.13
2022-10-19T02:00:46.278Z,102270.38
2022-10-19T02:03:14.272Z,102271.66
2022-10-19T02:05:42.139Z,102274.88
2022-10-19T02:08:14.986Z,102269.78
2022-10-19T02:10:44.434Z,102266.06
2022-10-19T02:13:13.901Z,102266.66
2022-10-19T02:15:45.676Z,102267.16
2022-10-19T02:18:19.810Z,102269.59
2022-10-19T02:20:46.742Z,102269.28
2022-10-19T02:23:18.668Z,102264.44
2022-10-19T02:25:45.189Z,102264.47
2022-10-19T02:28:11.946Z,102255.66
2022-10-19T02:30:38.545Z,102262.28
2022-10-19T02:33:05.282Z,102257.59
2022-10-19T02:35:31.784Z,102259.88
2022-10-19T02:38:00.974Z,102257.81
2022-10-19T02:40:29.820Z,102259.53
2022-10-19T02:43:00.409Z,102261.63
2022-10-19T02:45:35.203Z,102265.66
2022-10-19T02:48:13.636Z,102266.59
2022-10-19T02:50:44.277Z,102266.91
2022-10-19T02:53:11.033Z,102261.22
2022-10-19T02:55:37.676Z,102269.59
2022-10-19T02:58:04.317Z,102270.31
2022-10-19T03:00:30.809Z,102269.84
2022-10-19T03:02:57.345Z,102268.78
2022-10-19T03:05:24.340Z,102265.94
2022-10-19T03:07:51.078Z,102264.53
2022-10-19T03:10:18.054Z,102274.16
2022-10-19T03:12:45.038Z,102278.19
2022-10-19T03:15:18.894Z,102280.25
2022-10-19T03:17:48.751Z,102276.91
2022-10-19T03:20:15.346Z,102281.56
2022-10-19T03:22:42.210Z,102285.50
2022-10-19T03:25:09.519Z,102286.50
2022-10-19T03:27:36.668Z,102293.13
2022-10-19T03:30:03.923Z,102291.41
2022-10-19T03:32:30.420Z,102294.31
2022-10-19T03:34:56.918Z,102290.94
2022-10-19T03:37:23.643Z,102302.09
2022-10-19T03:39:53.106Z,102305.03
2022-10-19T03:42:20.383Z,102302.34
2022-10-19T03:44:47.582Z,102304.47
2022-10-19T03:47:14.249Z,102307.47
2022-10-19T03:49:41.134Z,102306.19
2022-10-19T03:52:09.954Z,102305.16
2022-10-19T03:54:36.702Z,102312.34
2022-10-19T03:57:03.309Z,102308.38
2022-10-19T03:59:30.048Z,102315.09
2022-10-19T04:01:56.581Z,102321.34
2022-10-19T04:04:23.044Z,102321.72
2022-10-19T04:06:50.474Z,102317.13
2022-10-19T04:09:19.406Z,102317.66
2022-10-19T04:11:46.090Z,102318.81
2022-10-19T04:14:19.334Z,102329.34
2022-10-19T04:16:53.872Z,102328.16
2022-10-19T04:19:20.662Z,102330.34
2022-10-19T04:21:49.359Z,102327.56
2022-10-19T04:24:19.597Z,102328.38
2022-10-19T04:26:49.440Z,102326.06
2022-10-19T04:29:19.123Z,102331.56
2022-10-19T04:31:50.562Z,102335.72
2022-10-19T04:34:18.442Z,102334.16
2022-10-19T04:36:49.371Z,102337.22
2022-10-19T04:39:16.188Z,102341.81
2022-10-19T04:41:42.733Z,102339.75
2022-10-19T04:44:09.672Z,102338.31
2022-10-19T04:46:37.324Z,102349.97
2022-10-19T04:49:06.212Z,102346.75
2022-10-19T04:51:32.832Z,102360.03
2022-10-19T04:54:00.343Z,102353.47
2022-10-19T04:56:29.633Z,102361.41
2022-10-19T04:59:00.867Z,102356.97
2022-10-19T05:01:30.928Z,102351.75
2022-10-19T05:04:02.486Z,102358.84
2022-10-19T05:06:30.876Z,102366.13
2022-10-19T05:08:58.299Z,102355.66
2022-10-19T05:11:28.197Z,102364.19
2022-10-19T05:13:56.350Z,102355.28
2022-10-19T05:16:26.014Z,102365.28
2022-10-19T05:18:59.617Z,102365.22
2022-10-19T05:21:29.676Z,102363.09
2022-10-19T05:23:57.482Z,102366.81
2022-10-19T05:26:26.366Z,102359.88
2022-10-19T05:28:56.767Z,102359.56
2022-10-19T05:31:26.950Z,102359.22
2022-10-19T05:33:56.218Z,102354.84
2022-10-19T05:36:29.435Z,102355.38
2022-10-19T05:38:57.371Z,102349.34
2022-10-19T05:41:25.434Z,102354.31
2022-10-19T05:43:54.047Z,102355.53
2022-10-19T05:46:20.730Z,102352.69
2022-10-19T05:48:47.391Z,102353.97
2022-10-19T05:51:16.980Z,102350.56
2022-10-19T05:53:43.889Z,102358.47
2022-10-19T05:56:15.309Z,102357.53
2022-10-19T05:58:41.864Z,102362.78
2022-10-19T06:01:09.385Z,102352.78
2022-10-19T06:03:36.507Z,102357.69
2022-10-19T06:06:05.051Z,102349.97
2022-10-19T06:08:31.856Z,102351.84
2022-10-19T06:11:10.255Z,102348.78
2022-10-19T06:13:37.733Z,102347.88
2022-10-19T06:16:05.447Z,102357.84
2022-10-19T06:18:32.232Z,102363.63
2022-10-19T06:21:03.919Z,102358.78
2022-10-19T06:23:31.603Z,102360.53
2022-10-19T06:25:58.477Z,102362.44
2022-10-19T06:28:25.139Z,102364.44
2022-10-19T06:30:51.713Z,102363.44
2022-10-19T06:33:18.307Z,102363.63
2022-10-19T06:35:44.761Z,102363.03
2022-10-19T06:38:13.717Z,102361.47
2022-10-19T06:40:40.342Z,102362.94
2022-10-19T06:43:06.975Z,102359.81
2022-10-19T06:45:36.010Z,102362.69
2022-10-19T06:48:06.571Z,102363.41
2022-10-19T06:50:34.243Z,102359.09
2022-10-19T06:53:00.726Z,102356.50
2022-10-19T06:55:27.372Z,102360.13
2022-10-19T06:57:53.854Z,102358.84
2022-10-19T07:00:20.496Z,102365.75
2022-10-19T07:02:47.025Z,102368.28
2022-10-19T07:05:13.594Z,102363.81
2022-10-19T07:07:40.154Z,102366.97
2022-10-19T07:10:08.092Z,102369.16
2022-10-19T07:12:34.718Z,102375.78
2022-10-19T07:15:01.347Z,102370.97
2022-10-19T07:17:27.841Z,102376.41
2022-10-19T07:19:54.980Z,102379.81
2022-10-19T07:22:27.213Z,102385.47
2022-10-19T07:24:54.675Z,102386.69
2022-10-19T07:27:21.247Z,102396.88
2022-10-19T07:29:47.781Z,102391.13
2022-10-19T07:32:14.286Z,102391.28
2022-10-19T07:34:40.761Z,102390.00
2022-10-19T07:37:07.345Z,102396.13
2022-10-19T07:39:33.908Z,102400.97
2022-10-19T07:42:02.705Z,102400.34
2022-10-19T07:44:29.249Z,102401.50
2022-10-19T07:46:55.983Z,102406.28
2022-10-19T07:49:24.220Z,102417.78
2022-10-19T07:51:54.015Z,102414.75
2022-10-19T07:54:21.461Z,102422.19
2022-10-19T07:56:48.156Z,102425.69
2022-10-19T07:59:16.246Z,102419.31
2022-10-19T08:01:47.540Z,102417.97
2022-10-19T08:04:55.528Z,102424.75
2022-10-19T08:07:00.683Z,102416.56
2022-10-19T08:09:51.503Z,102426.03
2022-10-19T08:12:15.453Z,102418.03
2022-10-19T08:14:42.259Z,102422.03
2022-10-19T08:17:11.834Z,102421.91
2022-10-19T08:19:43.351Z,102424.13
2022-10-19T08:22:11.087Z,102429.94
2022-10-19T08:24:37.863Z,102434.81
2022-10-19T08:27:04.450Z,102435.41
2022-10-19T08:29:31.740Z,102430.69
2022-10-19T08:32:00.057Z,102434.00
2022-10-19T08:34:26.636Z,102436.09
2022-10-19T08:36:53.399Z,102441.53
2022-10-19T08:39:19.849Z,102450.56
2022-10-19T08:42:06.576Z,102456.13
2022-10-19T08:45:04.202Z,102455.56
2022-10-19T08:47:49.594Z,102460.78
2022-10-19T08:50:27.016Z,102456.69
2022-10-19T08:53:03.458Z,102456.59
2022-10-19T08:55:53.242Z,102467.72
2022-10-19T08:58:31.986Z,102460.63
2022-10-19T09:01:35.354Z,102460.53
2022-10-19T09:04:16.384Z,102460.84
2022-10-19T09:07:03.966Z,102464.97
2022-10-19T09:09:32.575Z,102464.06
2022-10-19T09:12:05.909Z,102465.19
2022-10-19T09:14:40.771Z,102459.75
2022-10-19T09:17:12.846Z,102460.41
2022-10-19T09:19:39.422Z,102450.63
2022-10-19T09:22:19.883Z,102462.16
2022-10-19T09:24:52.602Z,102453.03
2022-10-19T09:27:21.948Z,102453.44
2022-10-19T09:29:51.293Z,102457.97
2022-10-19T09:32:23.260Z,102443.88
2022-10-19T09:34:56.655Z,102452.81
2022-10-19T09:37:26.641Z,102459.66
2022-10-19T09:39:55.598Z,102467.47
2022-10-19T09:42:33.113Z,102468.69
2022-10-19T09:45:02.586Z,102465.94
2022-10-19T09:47:38.176Z,102467.09
2022-10-19T09:50:13.822Z,102476.16
2022-10-19T09:52:42.684Z,102480.78
2022-10-19T09:55:18.399Z,102479.06
2022-10-19T09:57:50.184Z,102479.94
2022-10-19T10:00:31.955Z,102475.72
2022-10-19T10:02:58.654Z,102471.50
2022-10-19T10:05:34.658Z,102475.69
2022-10-19T10:08:01.833Z,102471.84
2022-10-19T10:10:35.976Z,102471.81
2022-10-19T10:13:03.386Z,102471.44
2022-10-19T10:15:41.264Z,102471.81
2022-10-19T10:18:14.523Z,102463.91
2022-10-19T10:20:58.933Z,102461.78
2022-10-19T10:23:31.054Z,102470.44
2022-10-19T10:25:59.426Z,102472.31
2022-10-19T10:28:28.205Z,102470.03
2022-10-19T10:31:01.154Z,102473.06
2022-10-19T10:33:45.998Z,102470.66
2022-10-19T10:36:13.096Z,102481.97
2022-10-19T10:38:45.717Z,102488.22
2022-10-19T10:41:18.618Z,102478.66
2022-10-19T10:43:57.501Z,102487.25
2022-10-19T10:46:33.617Z,102490.47
2022-10-19T10:49:04.080Z,102486.25
2022-10-19T10:51:39.348Z,102489.84
2022-10-19T10:54:16.882Z,102485.94
2022-10-19T10:56:44.782Z,102490.75
2022-10-19T10:59:19.474Z,102485.72
2022-10-19T11:01:54.315Z,102478.28
2022-10-19T11:04:26.146Z,102468.03
2022-10-19T11:06:58.310Z,102464.94
2022-10-19T11:09:38.394Z,102474.41
2022-10-19T11:12:10.261Z,102468.66
2022-10-19T11:14:47.660Z,102465.75
2022-10-19T11:17:23.241Z,102466.06
2022-10-19T11:19:53.599Z,102461.47
2022-10-19T11:22:40.713Z,102463.63
2022-10-19T11:25:18.156Z,102462.56
2022-10-19T11:27:56.826Z,102465.25
2022-10-19T11:30:25.004Z,102463.41
2022-10-19T11:33:28.576Z,102451.69
2022-10-19T11:36:03.877Z,102449.63
2022-10-19T11:38:55.656Z,102446.97
2022-10-19T11:41:31.604Z,102444.44
2022-10-19T11:44:09.468Z,102439.78
2022-10-19T11:46:39.459Z,102439.38
2022-10-19T11:49:23.641Z,102430.69
2022-10-19T11:51:59.045Z,102429.72
2022-10-19T11:54:31.942Z,102429.91
2022-10-19T11:57:05.553Z,102421.63
2022-10-19T11:59:43.497Z,102417.88
2022-10-19T12:02:12.857Z,102416.09
2022-10-19T12:04:48.575Z,102408.34
2022-10-19T12:07:49.221Z,102405.97
2022-10-19T12:10:28.751Z,102406.69
2022-10-19T12:13:03.446Z,102404.66
2022-10-19T12:15:36.139Z,102395.06
2022-10-19T12:18:10.290Z,102403.56
2022-10-19T12:20:46.128Z,102392.56
2022-10-19T12:23:35.607Z,102394.50
2022-10-19T12:26:05.693Z,102396.34
2022-10-19T12:28:36.782Z,102381.66
2022-10-19T12:31:05.866Z,102380.16
2022-10-19T12:33:47.773Z,102381.22
2022-10-19T12:36:33.097Z,102371.72
2022-10-19T12:39:04.504Z,102365.22
2022-10-19T12:41:52.384Z,102367.13
2022-10-19T12:44:57.865Z,102371.28
2022-10-19T12:47:25.540Z,102365.03
2022-10-19T12:49:57.422Z,102357.44
2022-10-19T12:52:42.420Z,102360.22
2022-10-19T12:55:13.525Z,102364.41
2022-10-19T12:57:40.757Z,102353.44
2022-10-19T13:00:19.627Z,102350.78
2022-10-19T13:02:48.435Z,102357.00
2022-10-19T13:05:22.977Z,102353.28
2022-10-19T13:10:26.116Z,102341.09
2022-10-19T13:12:53.698Z,102346.50
2022-10-19T13:15:35.116Z,102346.16
2022-10-19T13:18:11.934Z,102343.78
2022-10-19T13:20:38.379Z,102343.72
2022-10-19T13:23:04.838Z,102347.22
2022-10-19T13:25:35.753Z,102337.16
2022-10-19T13:28:12.613Z,102354.00
2022-10-19T13:30:39.166Z,102349.25
2022-10-19T13:33:33.217Z,102339.72
2022-10-19T13:35:59.749Z,102334.97
2022-10-19T13:39:06.021Z,102337.28
2022-10-19T13:41:38.547Z,102336.59
2022-10-19T13:44:15.287Z,102331.28
2022-10-19T13:46:47.781Z,102343.91
2022-10-19T13:49:20.469Z,102344.22
2022-10-19T13:52:03.515Z,102340.22
2022-10-19T13:54:48.988Z,102348.13
2022-10-19T13:57:32.019Z,102339.38
2022-10-19T14:00:18.087Z,102338.38
2022-10-19T14:03:05.366Z,102336.59
2022-10-19T14:06:19.521Z,102331.53
2022-10-19T14:08:49.594Z,102345.59
2022-10-19T14:11:26.174Z,102339.81
2022-10-19T14:14:11.007Z,102332.91
2022-10-19T14:16:59.700Z,102337.25
2022-10-19T14:19:44.433Z,102331.63
2022-10-19T14:22:26.492Z,102327.06
2022-10-19T14:25:01.662Z,102330.34
2022-10-19T14:27:28.456Z,102323.81
2022-10-19T14:29:55.062Z,102335.75
2022-10-19T14:32:27.933Z,102336.75
2022-10-19T14:35:00.043Z,102327.84
2022-10-19T14:37:27.294Z,102339.47
2022-10-19T14:40:08.495Z,102323.56
2022-10-19T14:42:45.041Z,102329.69
2022-10-19T14:45:23.824Z,102331.91
2022-10-19T14:47:55.124Z,102327.25
2022-10-19T14:50:27.039Z,102324.28
2022-10-19T14:53:01.033Z,102333.56
2022-10-19T14:55:34.463Z,102319.16
2022-10-19T14:58:02.021Z,102319.66
2022-10-19T15:00:32.161Z,102319.28
2022-10-19T15:03:07.139Z,102310.97
2022-10-19T15:05:37.765Z,102311.59
2022-10-19T15:08:11.650Z,102313.16
2022-10-19T15:10:45.688Z,102306.91
2022-10-19T15:13:24.980Z,102311.19
2022-10-19T15:15:53.554Z,102300.53
2022-10-19T15:18:43.961Z,102299.63
2022-10-19T15:21:17.809Z,102307.88
2022-10-19T15:23:46.399Z,102301.47
2022-10-19T15:26:18.475Z,102298.16
2022-10-19T15:28:47.553Z,102297.69
2022-10-19T15:31:21.445Z,102300.00
2022-10-19T15:33:52.599Z,102299.06
2022-10-19T15:36:29.367Z,102296.97
2022-10-19T15:39:18.330Z,102296.75
2022-10-19T15:41:51.482Z,102301.00
2022-10-19T15:44:42.376Z,102303.88
2022-10-19T15:47:14.847Z,102305.34
2022-10-19T15:49:41.353Z,102301.91
2022-10-19T15:52:25.177Z,102297.69
2022-10-19T15:54:56.643Z,102298.56
2022-10-19T15:57:34.171Z,102299.91
2022-10-19T16:00:21.512Z,102304.72
2022-10-19T16:02:47.997Z,102308.28
2022-10-19T16:05:14.501Z,102299.19
2022-10-19T16:07:41.923Z,102297.88
2022-10-19T16:10:15.139Z,102296.66
2022-10-19T16:12:41.669Z,102305.97
2022-10-19T16:15:12.539Z,102300.31
2022-10-19T16:17:39.796Z,102300.78
2022-10-19T16:20:06.650Z,102295.19
2022-10-19T16:22:33.476Z,102295.91
2022-10-19T16:24:59.966Z,102306.63
2022-10-19T16:27:26.504Z,102294.75
2022-10-19T16:29:53.031Z,102289.44
2022-10-19T16:32:19.496Z,102292.81
2022-10-19T16:34:46.512Z,102300.97
2022-10-19T16:37:13.016Z,102301.84
2022-10-19T16:39:39.505Z,102302.31
2022-10-19T16:42:06.010Z,102295.06
2022-10-19T16:44:32.478Z,102298.97
2022-10-19T16:46:59.800Z,102303.75
2022-10-19T16:49:26.344Z,102297.50
2022-10-19T16:51:56.276Z,102293.22
2022-10-19T16:54:26.484Z,102297.94
2022-10-19T16:56:53.323Z,102299.28
2022-10-19T16:59:19.989Z,102291.50
2022-10-19T17:01:47.037Z,102300.47
2022-10-19T17:04:15.735Z,102297.66
2022-10-19T17:06:42.411Z,102302.31
2022-10-19T17:11:55.984Z,102303.34
2022-10-19T17:14:22.479Z,102302.22
2022-10-19T17:16:49.017Z,102306.00
2022-10-19T17:19:15.723Z,102306.03
2022-10-19T17:21:42.673Z,102301.47
2022-10-19T17:24:20.225Z,102302.69
2022-10-19T17:26:48.791Z,102306.00
2022-10-19T17:29:15.315Z,102296.25
2022-10-19T17:31:42.957Z,102304.34
2022-10-19T17:34:10.552Z,102300.34
2022-10-19T17:36:44.192Z,102306.72
2022-10-19T17:39:17.937Z,102298.44
2022-10-19T17:41:49.330Z,102303.75
2022-10-19T17:44:17.581Z,102298.78
2022-10-19T17:46:44.850Z,102301.53
2022-10-19T17:49:12.447Z,102305.25
2022-10-19T17:51:39.791Z,102314.50
2022-10-19T17:54:09.401Z,102315.78
2022-10-19T17:56:36.754Z,102304.91
2022-10-19T17:59:04.569Z,102309.69
2022-10-19T18:01:31.430Z,102302.63
2022-10-19T18:03:57.997Z,102311.44
2022-10-19T18:06:29.528Z,102309.72
2022-10-19T18:11:45.043Z,102318.47
2022-10-19T18:14:13.044Z,102315.22
2022-10-19T18:16:45.833Z,102314.50
2022-10-19T18:19:14.821Z,102312.84
2022-10-19T18:21:43.389Z,102320.72
2022-10-19T18:24:15.369Z,102322.59
2022-10-19T18:26:42.573Z,102322.66
2022-10-19T18:29:24.292Z,102319.16
2022-10-19T18:31:52.422Z,102328.59
2022-10-19T18:34:22.495Z,102331.34
2022-10-19T18:36:50.113Z,102329.63
2022-10-19T18:39:17.445Z,102334.94
2022-10-19T18:41:44.004Z,102341.03
2022-10-19T18:44:13.865Z,102341.03
2022-10-19T18:46:40.970Z,102342.78
2022-10-19T18:49:08.756Z,102329.75
2022-10-19T18:51:35.966Z,102330.66
2022-10-19T18:54:02.547Z,102331.53
2022-10-19T18:56:29.626Z,102339.28
2022-10-19T18:58:57.124Z,102335.16
2022-10-19T19:01:29.208Z,102329.94
2022-10-19T19:04:04.332Z,102325.47
2022-10-19T19:06:31.646Z,102323.75
2022-10-19T19:08:59.884Z,102318.63
2022-10-19T19:11:35.843Z,102314.31
2022-10-19T19:14:20.920Z,102316.09
2022-10-19T19:16:47.658Z,102309.94
2022-10-19T19:19:15.977Z,102316.97
2022-10-19T19:21:44.328Z,102310.03
2022-10-19T19:24:16.749Z,102308.91
2022-10-19T19:26:48.288Z,102303.50
2022-10-19T19:29:15.591Z,102300.44
2022-10-19T19:31:42.176Z,102300.59
2022-10-19T19:34:09.491Z,102292.63
2022-10-19T19:36:38.180Z,102295.16
2022-10-19T19:39:05.201Z,102290.03
2022-10-19T19:41:34.006Z,102286.38
2022-10-19T19:44:00.604Z,102295.94
2022-10-19T19:46:27.184Z,102282.03
2022-10-19T19:49:00.771Z,102281.94
2022-10-19T19:51:28.916Z,102276.59
2022-10-19T19:53:56.127Z,102282.25
2022-10-19T19:56:23.495Z,102272.56
2022-10-19T19:58:54.624Z,102269.44
2022-10-19T20:01:21.762Z,102272.75
2022-10-19T20:03:49.000Z,102268.53
2022-10-19T20:06:22.081Z,102266.94
2022-10-19T20:08:51.895Z,102268.53
2022-10-19T20:11:18.565Z,102263.94
2022-10-19T20:13:45.855Z,102264.69
2022-10-19T20:16:18.465Z,102260.53
2022-10-19T20:18:47.925Z,102247.25
2022-10-19T20:21:15.336Z,102251.72
2022-10-19T20:23:46.395Z,102240.09
2022-10-19T20:26:21.225Z,102252.31
2022-10-19T20:28:48.224Z,102238.38
2022-10-19T20:31:15.218Z,102240.84
2022-10-19T20:33:43.295Z,102235.16
2022-10-19T20:36:11.388Z,102234.31
2022-10-19T20:38:39.245Z,102233.75
2022-10-19T20:41:08.421Z,102232.91
2022-10-19T20:43:37.193Z,102225.66
2022-10-19T20:46:22.258Z,102232.75
2022-10-19T20:48:50.155Z,102231.38
2022-10-19T20:51:19.622Z,102224.06
2022-10-19T20:53:48.615Z,102224.22
2022-10-19T20:56:21.656Z,102233.66
2022-10-19T20:58:50.327Z,102232.91
2022-10-19T21:01:19.006Z,102235.19
2022-10-19T21:04:00.750Z,102236.06
2022-10-19T21:06:29.337Z,102232.91
2022-10-19T21:08:56.160Z,102231.75
2022-10-19T21:11:31.718Z,102229.53
2022-10-19T21:14:03.797Z,102228.00
2022-10-19T21:16:33.636Z,102226.41
2022-10-19T21:19:02.132Z,102218.13
2022-10-19T21:21:35.171Z,102218.72
2022-10-19T21:24:07.421Z,102211.88
2022-10-19T21:26:35.571Z,102210.44
2022-10-19T21:29:03.068Z,102212.00
2022-10-19T21:31:30.697Z,102203.47
2022-10-19T21:33:57.665Z,102203.59
2022-10-19T21:36:27.662Z,102210.94
2022-10-19T21:38:54.194Z,102199.75
2022-10-19T21:41:25.394Z,102197.38
2022-10-19T21:43:54.136Z,102198.22
2022-10-19T21:46:22.686Z,102190.47
2022-10-19T21:48:49.571Z,102188.13
2022-10-19T21:51:18.876Z,102190.81
2022-10-19T21:53:46.587Z,102189.75
2022-10-19T21:56:14.286Z,102190.97
2022-10-19T21:58:45.600Z,102183.88
2022-10-19T22:01:12.793Z,102182.81
2022-10-19T22:03:39.414Z,102187.69
2022-10-19T22:06:06.510Z,102183.09
2022-10-19T22:08:33.297Z,102176.03
2022-10-19T22:11:06.270Z,102170.19
2022-10-19T22:13:33.825Z,102175.31
2022-10-19T22:16:05.014Z,102171.63
2022-10-19T22:18:31.935Z,102170.03
2022-10-19T22:21:03.204Z,102158.56
2022-10-19T22:23:29.849Z,102170.47
2022-10-19T22:26:03.969Z,102166.84
2022-10-19T22:28:36.665Z,102167.97
2022-10-19T22:31:09.908Z,102168.31
2022-10-19T22:33:39.492Z,102175.25
2022-10-19T22:36:12.390Z,102175.69
2022-10-19T22:38:44.078Z,102178.59
2022-10-19T22:41:12.629Z,102175.31
2022-10-19T22:43:40.481Z,102168.81
2022-10-19T22:46:12.029Z,102170.38
2022-10-19T22:48:42.105Z,102174.13
2022-10-19T22:51:12.906Z,102171.28
2022-10-19T22:53:45.408Z,102157.94
2022-10-19T22:56:21.645Z,102158.09
2022-10-19T22:59:03.218Z,102147.50
2022-10-19T23:01:34.418Z,102144.59
2022-10-19T23:04:05.334Z,102136.06
2022-10-19T23:06:42.801Z,102120.38
2022-10-19T23:09:16.523Z,102123.19
2022-10-19T23:11:46.948Z,102136.50
2022-10-19T23:14:15.526Z,102127.59
2022-10-19T23:16:42.065Z,102118.09
2022-10-19T23:19:08.595Z,102123.31
2022-10-19T23:21:35.177Z,102124.66
2022-10-19T23:24:01.711Z,102133.13
2022-10-19T23:26:28.393Z,102131.84
2022-10-19T23:28:54.940Z,102125.59
2022-10-19T23:31:24.794Z,102125.25
2022-10-19T23:33:52.223Z,102118.84
2022-10-19T23:36:25.070Z,102108.97
2022-10-19T23:38:52.871Z,102111.25
2022-10-19T23:41:20.135Z,102112.56
2022-10-19T23:43:46.761Z,102109.84
2022-10-19T23:46:14.104Z,102107.38
2022-10-19T23:48:41.891Z,102100.22
2022-10-19T23:51:10.772Z,102091.78
2022-10-19T23:53:41.066Z,102083.81
2022-10-19T23:56:19.754Z,102076.94
2022-10-19T23:58:46.951Z,102090.97
